Time;durP1;ratioP1;P1;durP2;ratioP2;P2;SDS_P1;SDS_P2;PMS_P1;PMS_P2;Temp;Humidity;BMP_temperature;BMP_pressure;BME280_temperature;BME280_humidity;BME280_pressure;Samples;Min_cycle;Max_cycle;Signal;HPM_P1;HPM_P2
2022/02/04 00:25:08;;;;;;;;;13.75;11.50;;;;;9.89;100.00;101417.56;5076313;28;45481;-85
2022/02/04 00:27:34;;;;;;;;;19.75;12.25;;;;;9.90;100.00;101413.28;5077670;28;45343;-82
2022/02/04 00:30:07;;;;;;;;;14.75;13.00;;;;;9.89;100.00;101407.22;5078853;27;45417;-84
2022/02/04 00:32:35;;;;;;;;;14.00;12.25;;;;;9.86;100.00;101398.38;5079012;27;45223;-83
2022/02/04 00:35:20;;;;;;;;;14.50;11.00;;;;;9.88;100.00;101407.13;5058861;28;45604;-84
2022/02/04 00:38:03;;;;;;;;;15.00;12.00;;;;;9.88;100.00;101404.53;5077503;28;46439;-84
2022/02/04 00:40:34;;;;;;;;;13.50;11.50;;;;;9.88;100.00;101400.25;5071082;27;45473;-84
2022/02/04 00:43:04;;;;;;;;;12.75;10.75;;;;;9.87;100.00;101389.81;5078753;28;45383;-84
2022/02/04 00:45:37;;;;;;;;;13.00;11.75;;;;;9.89;100.00;101386.50;5062148;28;45485;-83
2022/02/04 00:53:32;;;;;;;;;15.75;12.50;;;;;9.94;100.00;101388.47;5077958;28;45449;-83
2022/02/04 00:56:22;;;;;;;;;16.75;12.00;;;;;9.94;100.00;101391.94;5076999;28;45533;-84
2022/02/04 01:28:22;;;;;;;;;11.75;10.50;;;;;9.88;100.00;101394.19;5078599;27;45338;-85
2022/02/04 01:30:47;;;;;;;;;15.75;11.25;;;;;9.86;100.00;101386.38;5078693;28;46132;-85
2022/02/04 01:33:13;;;;;;;;;13.25;12.00;;;;;9.82;100.00;101379.22;5078342;28;45463;-85
2022/02/04 01:35:39;;;;;;;;;12.50;12.00;;;;;9.80;100.00;101391.16;5078876;27;45454;-85
2022/02/04 01:38:05;;;;;;;;;11.75;10.75;;;;;9.81;100.00;101390.38;5078314;28;45276;-83
2022/02/04 01:40:32;;;;;;;;;14.25;12.50;;;;;9.83;100.00;101386.19;5079055;28;45336;-85
2022/02/04 01:42:58;;;;;;;;;15.00;12.00;;;;;9.83;100.00;101381.00;5086064;28;45406;-84
2022/02/04 01:45:23;;;;;;;;;13.50;11.50;;;;;9.79;100.00;101384.22;5080103;28;45387;-84
2022/02/04 01:47:55;;;;;;;;;17.75;12.75;;;;;9.81;100.00;101380.03;5078759;28;45250;-84
2022/02/04 01:50:26;;;;;;;;;10.75;10.50;;;;;9.82;100.00;101394.75;5078140;28;46341;-86
2022/02/04 01:52:52;;;;;;;;;12.00;11.00;;;;;9.77;100.00;101380.66;5078404;27;46089;-83
2022/02/04 01:55:18;;;;;;;;;10.25;9.75;;;;;9.80;100.00;101386.00;5078240;27;45481;-83
2022/02/04 01:57:44;;;;;;;;;13.75;12.00;;;;;9.80;100.00;101379.94;5078684;28;45585;-84
2022/02/04 02:00:11;;;;;;;;;11.50;11.00;;;;;9.83;100.00;101395.63;5078107;28;45328;-84
2022/02/04 02:02:36;;;;;;;;;15.25;13.75;;;;;9.82;100.00;101389.56;5078317;28;45738;-83
2022/02/04 02:05:03;;;;;;;;;18.25;14.25;;;;;9.80;100.00;101382.53;5060523;28;45303;-84
2022/02/04 02:07:29;;;;;;;;;13.25;11.00;;;;;9.76;100.00;101377.19;5077637;27;45585;-83
2022/02/04 02:10:00;;;;;;;;;15.00;14.75;;;;;9.76;100.00;101387.53;5077211;28;45508;-83
2022/02/04 02:12:32;;;;;;;;;12.00;10.00;;;;;9.76;100.00;101378.88;5077791;27;45760;-83
2022/02/04 02:15:27;;;;;;;;;12.00;10.75;;;;;9.75;100.00;101372.81;5077790;27;45327;-83
2022/02/04 02:42:20;;;;;;;;;14.00;12.50;;;;;9.76;100.00;101351.31;5077530;28;45302;-82
2022/02/04 02:47:27;;;;;;;;;14.00;14.00;;;;;9.80;100.00;101352.38;5077352;28;45413;-82
2022/02/04 02:53:02;;;;;;;;;10.25;8.25;;;;;9.80;100.00;101339.44;5077180;28;45380;-82
2022/02/04 03:02:35;;;;;;;;;10.25;10.00;;;;;9.84;100.00;101348.25;5077089;27;45454;-82
2022/02/04 03:05:00;;;;;;;;;12.50;10.50;;;;;9.80;100.00;101342.03;5077350;28;45338;-82
2022/02/04 03:07:26;;;;;;;;;12.25;9.50;;;;;9.81;100.00;101332.59;5076735;28;45425;-82
2022/02/04 03:09:52;;;;;;;;;9.75;7.25;;;;;9.81;100.00;101324.84;5059047;28;45457;-82
2022/02/04 03:12:17;;;;;;;;;9.75;9.75;;;;;9.84;100.00;101331.06;5076625;28;45534;-81
2022/02/04 03:14:43;;;;;;;;;9.75;6.50;;;;;9.77;100.00;101328.94;5077174;28;45429;-82
2022/02/04 03:17:12;;;;;;;;;8.00;4.50;;;;;9.73;100.00;101321.81;5076498;28;45531;-82
2022/02/04 03:19:39;;;;;;;;;7.50;5.50;;;;;9.71;100.00;101319.16;5077387;28;45462;-81
2022/02/04 03:22:10;;;;;;;;;6.75;5.75;;;;;9.70;100.00;101311.28;5076504;28;46504;-82
2022/02/04 03:24:36;;;;;;;;;10.00;4.00;;;;;9.69;100.00;101325.94;5077009;27;45209;-82
2022/02/04 03:27:08;;;;;;;;;6.50;4.75;;;;;9.67;100.00;101317.19;5079771;28;45319;-83
2022/02/04 03:29:53;;;;;;;;;4.50;4.50;;;;;9.65;100.00;101316.19;5083890;28;45782;-82
2022/02/04 03:32:21;;;;;;;;;9.00;8.25;;;;;9.59;100.00;101310.69;5080197;28;46207;-81
2022/02/04 03:34:46;;;;;;;;;6.75;6.00;;;;;9.60;100.00;101321.13;5077046;28;45266;-83
2022/02/04 03:37:12;;;;;;;;;11.50;8.25;;;;;9.57;100.00;101314.88;5076613;28;45482;-81
2022/02/04 03:39:38;;;;;;;;;9.50;6.00;;;;;9.53;100.00;101318.09;5076896;27;45279;-83
2022/02/04 03:42:04;;;;;;;;;9.25;6.50;;;;;9.51;100.00;101302.50;5076733;28;45529;-82
2022/02/04 03:44:31;;;;;;;;;7.50;7.00;;;;;9.54;100.00;101302.69;5058610;28;45816;-82
2022/02/04 03:46:57;;;;;;;;;6.00;5.50;;;;;9.56;100.00;101305.34;5076786;27;45442;-82
2022/02/04 03:49:22;;;;;;;;;7.25;7.25;;;;;9.53;100.00;101313.81;5076630;28;45567;-83
2022/02/04 03:51:48;;;;;;;;;8.25;5.50;;;;;9.52;100.00;101319.78;5075793;27;45989;-82
2022/02/04 03:54:14;;;;;;;;;10.75;9.25;;;;;9.51;100.00;101309.34;5076139;28;45449;-83
2022/02/04 03:56:39;;;;;;;;;9.25;9.00;;;;;9.46;100.00;101298.75;5076563;27;45494;-82
2022/02/04 03:59:05;;;;;;;;;8.75;6.75;;;;;9.44;100.00;101308.13;5058179;28;45591;-83
2022/02/04 04:01:30;;;;;;;;;13.75;10.00;;;;;9.47;100.00;101310.00;5076449;28;45308;-82
2022/02/04 04:03:56;;;;;;;;;10.00;9.50;;;;;9.46;100.00;101311.66;5076052;28;45180;-82
2022/02/04 04:06:21;;;;;;;;;14.75;8.00;;;;;9.50;100.00;101315.34;5057815;28;45387;-82
2022/02/04 04:08:51;;;;;;;;;13.00;12.00;;;;;9.52;100.00;101308.53;5076585;28;45279;-83
2022/02/04 04:11:17;;;;;;;;;14.25;11.00;;;;;9.53;100.00;101297.41;5075546;28;45690;-82
2022/02/04 04:13:43;;;;;;;;;11.50;9.00;;;;;9.54;100.00;101309.53;5076085;28;45321;-82
2022/02/04 04:16:08;;;;;;;;;11.00;10.00;;;;;9.55;100.00;101306.16;5075783;28;45821;-81
2022/02/04 04:18:34;;;;;;;;;9.50;7.50;;;;;9.59;100.00;101318.47;5074842;27;45488;-81
2022/02/04 04:21:01;;;;;;;;;12.50;10.75;;;;;9.59;100.00;101301.22;5076183;28;46555;-83
2022/02/04 04:23:27;;;;;;;;;11.75;8.75;;;;;9.56;100.00;101295.88;5075991;28;45216;-82
2022/02/04 04:25:53;;;;;;;;;12.25;11.50;;;;;9.57;100.00;101295.09;5059461;28;45447;-82
2022/02/04 04:28:19;;;;;;;;;15.00;10.75;;;;;9.55;100.00;101295.81;5081733;28;45249;-83
2022/02/04 04:30:44;;;;;;;;;16.75;10.50;;;;;9.57;100.00;101299.38;5061128;28;47715;-83
2022/02/04 04:33:10;;;;;;;;;16.75;12.25;;;;;9.54;100.00;101291.44;5078885;28;45345;-83
2022/02/04 04:35:37;;;;;;;;;11.25;11.25;;;;;9.52;100.00;101293.94;5082022;28;45311;-81
2022/02/04 04:41:11;;;;;;;;;15.75;13.00;;;;;9.56;100.00;101298.47;5075220;28;45856;-84
2022/02/04 04:44:22;;;;;;;;;13.00;10.75;;;;;9.55;100.00;101299.31;5075418;27;45753;-83
2022/02/04 05:29:51;;;;;;;;;13.25;12.25;;;;;9.75;100.00;101263.31;5078725;28;45186;-82
2022/02/04 05:32:17;;;;;;;;;15.50;12.75;;;;;9.75;100.00;101266.78;5078682;27;45481;-82
2022/02/04 05:34:45;;;;;;;;;15.00;13.00;;;;;9.76;100.00;101252.19;5078424;27;45888;-82
2022/02/04 05:37:13;;;;;;;;;18.00;13.00;;;;;9.80;100.00;101251.53;5059719;28;45397;-83
2022/02/04 05:39:49;;;;;;;;;14.50;11.50;;;;;9.83;100.00;101251.69;5078926;28;45258;-81
2022/02/04 05:42:20;;;;;;;;;14.25;12.75;;;;;9.86;100.00;101254.47;5077346;28;45386;-82
2022/02/04 05:44:53;;;;;;;;;17.75;14.50;;;;;9.89;100.00;101252.03;5078052;27;45451;-82
2022/02/04 05:47:20;;;;;;;;;15.25;13.00;;;;;9.94;100.00;101253.97;5078099;27;45174;-81
2022/02/04 05:50:03;;;;;;;;;17.75;14.25;;;;;9.98;100.00;101251.63;5078467;28;45305;-81
2022/02/04 05:52:32;;;;;;;;;14.50;11.25;;;;;10.03;100.00;101236.38;5078553;28;45238;-81
2022/02/04 05:55:20;;;;;;;;;12.75;12.25;;;;;10.07;100.00;101244.38;5078166;28;46194;-81
2022/02/04 05:58:39;;;;;;;;;18.50;14.75;;;;;10.09;100.00;101247.06;5078175;27;45326;-81
2022/02/04 06:00:43;;;;;;;;;15.75;14.00;;;;;10.14;100.00;101245.59;5074396;27;45235;-82
2022/02/04 06:11:22;;;;;;;;;17.00;14.00;;;;;10.17;100.00;101247.44;5077948;28;45454;-83
2022/02/04 06:24:43;;;;;;;;;19.00;14.75;;;;;10.17;100.00;101255.22;5072403;28;45862;-83
2022/02/04 06:27:09;;;;;;;;;10.75;10.50;;;;;10.18;100.00;101251.81;5075949;28;45871;-82
2022/02/04 06:29:34;;;;;;;;;15.75;14.75;;;;;10.16;100.00;101248.25;5077608;28;45398;-82
2022/02/04 06:32:00;;;;;;;;;17.75;15.75;;;;;10.18;100.00;101247.56;5077878;28;45219;-83
2022/02/04 06:34:26;;;;;;;;;25.00;17.25;;;;;10.16;100.00;101246.56;5077558;28;45220;-82
2022/02/04 06:36:51;;;;;;;;;16.25;13.75;;;;;10.17;100.00;101248.34;5076192;27;45432;-82
2022/02/04 06:39:17;;;;;;;;;18.25;16.75;;;;;10.17;100.00;101242.28;5076302;28;45331;-83
2022/02/04 06:41:43;;;;;;;;;5.00;5.00;;;;;10.19;100.00;101236.41;5060051;28;45288;-82
2022/02/04 06:44:08;;;;;;;;;15.00;12.50;;;;;10.21;100.00;101244.22;5077749;27;45617;-83
2022/02/04 06:46:34;;;;;;;;;17.50;15.00;;;;;10.19;100.00;101249.34;5073507;28;47866;-83
2022/02/04 06:48:59;;;;;;;;;15.25;14.00;;;;;10.18;100.00;101257.91;5076678;28;45463;-83
2022/02/04 06:51:25;;;;;;;;;18.50;13.25;;;;;10.16;100.00;101236.22;5076233;28;45461;-84
2022/02/04 06:53:51;;;;;;;;;19.75;15.50;;;;;10.18;100.00;101238.88;5052897;28;45521;-83
2022/02/04 06:56:16;;;;;;;;;14.00;13.75;;;;;10.13;100.00;101236.06;5086432;28;45292;-81
2022/02/04 06:58:43;;;;;;;;;14.00;14.00;;;;;10.14;100.00;101249.91;5077283;28;45249;-81
2022/02/04 07:01:09;;;;;;;;;21.75;18.00;;;;;10.12;100.00;101248.91;5077527;28;45417;-80
2022/02/04 07:03:34;;;;;;;;;19.25;15.00;;;;;10.07;100.00;101235.75;5081359;27;45591;-81
2022/02/04 07:06:02;;;;;;;;;15.00;13.00;;;;;10.09;100.00;101236.72;5079502;28;45448;-81
2022/02/04 07:08:45;;;;;;;;;21.50;15.75;;;;;10.11;100.00;101257.47;5076344;28;45338;-83
2022/02/04 07:16:36;;;;;;;;;15.00;13.75;;;;;10.02;100.00;101251.00;5059071;27;45777;-85
2022/02/04 07:21:46;;;;;;;;;18.75;15.00;;;;;9.97;100.00;101248.97;5076620;27;45411;-81
2022/02/04 07:24:11;;;;;;;;;16.25;13.50;;;;;9.96;100.00;101247.19;5077093;28;45302;-77
2022/02/04 07:26:37;;;;;;;;;14.00;12.25;;;;;9.97;100.00;101249.84;5061114;28;46401;-79
2022/02/04 07:29:03;;;;;;;;;18.50;16.00;;;;;9.95;100.00;101245.41;5065112;28;45530;-81
2022/02/04 07:31:33;;;;;;;;;15.25;13.00;;;;;9.91;100.00;101237.47;5077079;28;45330;-81
2022/02/04 07:41:47;;;;;;;;;17.75;12.50;;;;;9.86;100.00;101238.03;5074711;28;45796;-83
2022/02/04 07:44:13;;;;;;;;;13.25;11.25;;;;;9.86;100.00;101233.78;5074925;28;45592;-84
2022/02/04 07:46:40;;;;;;;;;12.50;12.00;;;;;9.88;100.00;101239.91;5073521;28;45493;-84
2022/02/04 07:49:06;;;;;;;;;12.75;12.00;;;;;9.87;100.00;101227.81;5075349;27;45897;-85
2022/02/04 07:51:34;;;;;;;;;12.00;10.00;;;;;9.90;100.00;101230.53;5073570;28;45467;-84
2022/02/04 07:54:00;;;;;;;;;14.25;12.75;;;;;9.92;100.00;101225.47;5075903;28;45667;-84
2022/02/04 07:56:26;;;;;;;;;11.75;11.00;;;;;9.95;100.00;101235.06;5057120;28;45384;-84
2022/02/04 07:58:58;;;;;;;;;9.50;9.50;;;;;9.94;100.00;101226.41;5076053;27;45322;-84
2022/02/04 08:01:28;;;;;;;;;10.00;8.50;;;;;9.94;100.00;101221.22;5075415;28;45484;-83
2022/02/04 08:04:24;;;;;;;;;15.00;12.75;;;;;9.96;100.00;101229.97;5057451;28;45601;-85
2022/02/04 08:06:55;;;;;;;;;11.00;11.00;;;;;10.00;100.00;101231.03;5054192;28;47685;-83
2022/02/04 08:14:23;;;;;;;;;12.25;11.50;;;;;9.97;100.00;101236.06;5074523;28;45457;-84
2022/02/04 08:17:09;;;;;;;;;14.50;12.75;;;;;9.98;100.00;101232.66;5056478;28;47637;-84
2022/02/04 08:22:36;;;;;;;;;13.75;13.00;;;;;9.99;100.00;101237.91;5074324;27;45417;-84
2022/02/04 08:27:59;;;;;;;;;10.75;7.00;;;;;10.02;100.00;101232.00;5044418;28;46259;-82
2022/02/04 08:33:06;;;;;;;;;10.25;10.00;;;;;10.03;100.00;101220.84;5074187;28;45382;-80
2022/02/04 08:36:03;;;;;;;;;10.50;10.00;;;;;10.06;100.00;101226.19;5075789;28;45308;-82
2022/02/04 08:52:36;;;;;;;;;10.50;9.75;;;;;10.18;100.00;101237.19;5083341;27;45549;-88
2022/02/04 08:54:33;;;;;;;;;10.75;9.50;;;;;10.18;100.00;101233.72;5070939;27;45611;-83
2022/02/04 08:57:03;;;;;;;;;12.25;9.25;;;;;10.17;100.00;101240.59;5078538;28;45393;-84
2022/02/04 08:59:55;;;;;;;;;15.75;14.00;;;;;10.22;100.00;101233.06;5079320;28;45456;-83
2022/02/04 09:02:35;;;;;;;;;12.25;10.50;;;;;10.21;100.00;101234.75;5078510;27;45418;-83
2022/02/04 09:05:08;;;;;;;;;10.00;9.50;;;;;10.16;100.00;101222.38;5060978;28;45553;-82
2022/02/04 09:07:49;;;;;;;;;9.00;7.25;;;;;10.13;100.00;101214.47;5079524;28;45932;-81
2022/02/04 09:10:16;;;;;;;;;9.00;9.00;;;;;10.14;100.00;101214.53;5078406;28;45279;-83
2022/02/04 09:22:59;;;;;;;;;6.75;5.50;;;;;10.17;100.00;101213.81;5076054;28;45358;-81
2022/02/04 09:25:25;;;;;;;;;7.50;6.75;;;;;10.14;100.00;101201.59;5075596;28;45319;-80
2022/02/04 09:27:51;;;;;;;;;12.75;10.50;;;;;10.13;100.00;101197.25;5060410;28;45580;-80
2022/02/04 09:30:18;;;;;;;;;9.75;8.00;;;;;10.21;100.00;101202.81;5077095;27;45990;-82
2022/02/04 09:32:45;;;;;;;;;13.00;9.25;;;;;10.26;100.00;101203.94;5059145;28;45498;-83
2022/02/04 09:35:13;;;;;;;;;11.25;11.25;;;;;10.27;100.00;101205.72;5078469;28;45484;-83
2022/02/04 09:37:42;;;;;;;;;7.00;7.00;;;;;10.23;100.00;101202.09;5078348;27;45529;-84
2022/02/04 09:40:09;;;;;;;;;10.00;10.00;;;;;10.28;100.00;101210.09;5077599;28;46624;-83
2022/02/04 09:42:35;;;;;;;;;8.25;8.00;;;;;10.30;100.00;101217.97;5059955;28;45482;-82
2022/02/04 09:45:01;;;;;;;;;12.50;11.25;;;;;10.27;100.00;101213.50;5060338;28;45299;-82
2022/02/04 09:47:35;;;;;;;;;13.00;11.25;;;;;10.28;100.00;101209.22;5060324;28;45576;-81
2022/02/04 09:50:06;;;;;;;;;8.75;8.50;;;;;10.20;100.00;101224.34;5077151;28;46183;-83
2022/02/04 10:14:37;;;;;;;;;10.50;9.50;;;;;10.11;100.00;101190.22;5077505;28;45877;-82
2022/02/04 10:22:23;;;;;;;;;8.50;8.50;;;;;10.29;100.00;101148.88;5076512;28;45864;-81
2022/02/04 10:25:16;;;;;;;;;7.25;5.25;;;;;10.38;100.00;101155.44;5077659;28;45358;-82
2022/02/04 10:27:46;;;;;;;;;9.50;8.25;;;;;10.45;100.00;101159.22;5074417;27;45538;-81
2022/02/04 10:30:14;;;;;;;;;7.75;6.00;;;;;10.47;100.00;101165.38;5077101;28;45467;-81
2022/02/04 10:32:47;;;;;;;;;8.75;6.50;;;;;10.48;100.00;101172.34;5059755;28;46891;-83
2022/02/04 10:35:28;;;;;;;;;11.50;8.25;;;;;10.49;100.00;101168.03;5076275;28;45446;-81
2022/02/04 10:37:57;;;;;;;;;6.25;5.25;;;;;10.49;100.00;101163.75;5059218;28;45366;-82
2022/02/04 10:40:43;;;;;;;;;12.00;12.00;;;;;10.54;100.00;101164.00;5077655;28;45549;-81
2022/02/04 10:43:37;;;;;;;;;11.00;10.00;;;;;10.57;100.00;101169.34;5077117;28;45922;-83
2022/02/04 10:46:20;;;;;;;;;6.50;6.50;;;;;10.53;100.00;101163.09;5077119;27;45439;-83
2022/02/04 10:57:47;;;;;;;;;9.75;9.75;;;;;10.63;100.00;101159.28;5056519;28;46026;-83
2022/02/04 11:11:13;;;;;;;;;7.25;7.25;;;;;10.81;100.00;101161.91;5076124;28;45465;-82
2022/02/04 11:33:43;;;;;;;;;4.25;3.75;;;;;10.96;100.00;101109.06;5077466;28;45426;-86
2022/02/04 11:35:54;;;;;;;;;4.00;3.00;;;;;10.96;100.00;101102.16;5075848;28;45519;-83
2022/02/04 11:55:10;;;;;;;;;3.50;3.00;;;;;11.24;100.00;101054.22;5066962;28;45350;-86
2022/02/04 11:57:40;;;;;;;;;2.75;2.00;;;;;11.28;100.00;101050.09;5077148;28;45553;-85
2022/02/04 12:00:18;;;;;;;;;4.75;3.50;;;;;11.36;100.00;101064.28;5074533;28;46325;-84
2022/02/04 12:02:46;;;;;;;;;2.00;2.00;;;;;11.38;100.00;101073.03;5076238;28;45485;-84
2022/02/04 12:05:17;;;;;;;;;3.00;3.00;;;;;11.39;100.00;101067.00;5076356;28;45371;-84
2022/02/04 12:07:51;;;;;;;;;1.00;1.00;;;;;11.41;100.00;101039.44;5077483;28;45537;-83
2022/02/04 12:10:24;;;;;;;;;2.00;2.00;;;;;11.53;100.00;101038.22;5076345;27;46088;-84
2022/02/04 12:12:53;;;;;;;;;5.00;2.50;;;;;11.64;100.00;101049.94;5092069;27;45599;-85
2022/02/04 12:15:30;;;;;;;;;2.00;2.00;;;;;11.69;100.00;101039.78;5076226;27;45402;-83
2022/02/04 12:18:02;;;;;;;;;3.50;3.50;;;;;11.68;100.00;101036.31;5060272;27;45458;-84
2022/02/04 12:23:32;;;;;;;;;1.50;1.50;;;;;11.66;100.00;101040.53;5077871;28;45769;-84
2022/02/04 12:26:02;;;;;;;;;2.75;1.75;;;;;11.67;100.00;101000.81;5079828;28;45437;-84
2022/02/04 12:28:49;;;;;;;;;4.50;1.75;;;;;11.72;100.00;101017.44;5097600;27;45258;-83
2022/02/04 12:31:26;;;;;;;;;3.00;1.50;;;;;11.75;100.00;100999.44;5060744;28;45332;-83
2022/02/04 12:34:03;;;;;;;;;3.25;2.75;;;;;11.83;100.00;100993.66;5079679;28;45424;-82
2022/02/04 12:36:35;;;;;;;;;2.00;2.00;;;;;11.90;100.00;100987.94;5061548;28;45346;-82
2022/02/04 12:39:07;;;;;;;;;2.00;2.00;;;;;11.95;100.00;101019.28;5079852;27;45396;-82
2022/02/04 12:41:38;;;;;;;;;3.00;1.25;;;;;11.94;100.00;100982.03;5079483;27;46121;-84
2022/02/04 12:44:09;;;;;;;;;4.00;2.00;;;;;12.07;100.00;100974.00;5079165;27;45454;-83
2022/02/04 12:46:38;;;;;;;;;2.00;2.00;;;;;12.17;100.00;100976.94;5079352;28;45253;-83
2022/02/04 12:49:09;;;;;;;;;2.25;1.00;;;;;12.15;100.00;100976.03;5095090;27;45501;-83
2022/02/04 12:54:51;;;;;;;;;2.00;2.00;;;;;12.20;100.00;100964.97;5078884;28;45789;-83
2022/02/04 13:02:57;;;;;;;;;1.25;0.75;;;;;12.33;100.00;100974.16;5080417;27;45429;-83
2022/02/04 13:08:25;;;;;;;;;0.00;0.00;;;;;12.25;100.00;100957.41;5083820;27;45438;-82
2022/02/04 13:11:00;;;;;;;;;0.00;0.00;;;;;12.27;98.84;100980.81;5080115;27;45434;-83
2022/02/04 13:13:27;;;;;;;;;0.00;0.00;;;;;12.19;99.04;100945.06;5079584;28;45398;-85
2022/02/04 13:15:55;;;;;;;;;0.75;0.00;;;;;12.22;100.00;100958.16;5079611;27;45323;-83
2022/02/04 13:18:23;;;;;;;;;0.75;0.00;;;;;12.22;99.75;100960.75;5060589;27;45350;-84
2022/02/04 13:20:50;;;;;;;;;0.00;0.00;;;;;12.21;100.00;100955.50;5079438;27;45269;-85
2022/02/04 13:23:24;;;;;;;;;0.00;0.00;;;;;12.17;100.00;100951.91;5061128;28;45565;-83
2022/02/04 13:25:52;;;;;;;;;5.50;3.00;;;;;12.18;100.00;100957.97;5078945;27;45839;-83
2022/02/04 13:28:26;;;;;;;;;3.25;1.00;;;;;12.15;100.00;100989.00;5095640;27;45310;-84
2022/02/04 13:31:03;;;;;;;;;0.00;0.00;;;;;12.15;100.00;100976.91;5080994;27;45375;-84
2022/02/04 13:33:38;;;;;;;;;3.00;0.00;;;;;12.14;100.00;100984.63;5060526;28;47274;-83
2022/02/04 13:38:50;;;;;;;;;2.00;0.00;;;;;12.07;100.00;100966.19;5079078;28;45935;-83
2022/02/04 13:41:31;;;;;;;;;2.75;1.00;;;;;12.10;100.00;100988.78;5078942;27;45266;-83
2022/02/04 13:44:58;;;;;;;;;2.00;0.00;;;;;12.11;100.00;100959.41;5078873;28;45450;-83
2022/02/04 13:47:36;;;;;;;;;1.50;0.00;;;;;12.08;100.00;100960.19;5038851;28;45540;-85
2022/02/04 13:55:37;;;;;;;;;0.25;0.25;;;;;12.13;100.00;100967.28;5078242;27;45488;-83
2022/02/04 13:58:29;;;;;;;;;0.00;0.00;;;;;12.13;100.00;100988.06;5077535;28;45484;-82
2022/02/04 14:03:37;;;;;;;;;0.00;0.00;;;;;12.12;100.00;100981.09;5086484;28;44799;-83
2022/02/04 14:06:25;;;;;;;;;1.00;0.00;;;;;12.07;100.00;100963.59;5080648;28;46079;-83
2022/02/04 14:08:58;;;;;;;;;1.00;1.00;;;;;12.06;100.00;100973.94;5078908;28;45370;-85
2022/02/04 14:11:31;;;;;;;;;2.00;1.00;;;;;12.06;100.00;100990.38;5078459;27;45419;-82
2022/02/04 14:13:58;;;;;;;;;1.00;1.00;;;;;12.02;100.00;100998.88;5079303;28;45345;-82
2022/02/04 14:16:25;;;;;;;;;0.50;0.50;;;;;12.00;100.00;100986.63;5059627;28;46874;-83
2022/02/04 14:18:51;;;;;;;;;0.75;0.75;;;;;11.98;100.00;100972.75;5079241;27;45387;-83
2022/02/04 14:21:19;;;;;;;;;1.00;1.00;;;;;11.96;100.00;100992.50;5080420;27;45331;-84
2022/02/04 14:23:48;;;;;;;;;2.25;1.00;;;;;11.93;100.00;100991.53;5078264;27;45407;-83
2022/02/04 14:26:25;;;;;;;;;2.75;1.75;;;;;11.93;100.00;101007.13;5077541;28;45289;-83
2022/02/04 14:28:56;;;;;;;;;0.50;0.50;;;;;11.92;100.00;100999.28;5077913;27;45540;-84
2022/02/04 14:53:19;;;;;;;;;1.00;1.00;;;;;11.66;100.00;101092.41;5077277;28;45310;-84
2022/02/04 15:02:22;;;;;;;;;0.00;0.00;;;;;11.22;100.00;101137.91;5078211;27;45718;-82
2022/02/04 15:04:22;;;;;;;;;0.75;0.00;;;;;11.07;100.00;101138.06;5054440;28;45416;-83
2022/02/04 15:06:58;;;;;;;;;0.00;0.00;;;;;10.92;100.00;101152.03;5077626;27;45482;-83
2022/02/04 15:09:24;;;;;;;;;0.25;0.25;;;;;10.87;100.00;101139.69;5076790;27;45402;-84
2022/02/04 15:11:50;;;;;;;;;0.75;0.75;;;;;10.83;100.00;101134.38;5077095;27;45389;-84
2022/02/04 15:14:18;;;;;;;;;4.00;1.00;;;;;10.80;100.00;101143.66;5059723;28;45488;-83
2022/02/04 15:16:45;;;;;;;;;1.00;1.00;;;;;10.76;100.00;101154.72;5078221;28;45374;-85
2022/02/04 15:19:11;;;;;;;;;1.25;1.00;;;;;10.71;100.00;101153.59;5076286;27;46043;-84
2022/02/04 15:21:40;;;;;;;;;2.00;0.75;;;;;10.72;100.00;101160.53;5058596;28;45324;-83
2022/02/04 15:24:07;;;;;;;;;1.00;1.00;;;;;10.66;100.00;101195.69;5097382;27;45365;-85
2022/02/04 15:26:33;;;;;;;;;1.25;1.00;;;;;10.49;100.00;101210.38;5077624;28;45576;-84
2022/02/04 15:29:11;;;;;;;;;1.00;1.00;;;;;10.33;100.00;101216.41;5077192;27;45366;-84
2022/02/04 15:31:47;;;;;;;;;0.00;0.00;;;;;10.23;100.00;101220.19;5058956;28;45841;-83
2022/02/04 15:34:30;;;;;;;;;1.00;0.00;;;;;10.02;100.00;101201.88;5077026;27;45740;-83
2022/02/04 15:36:56;;;;;;;;;0.25;0.25;;;;;10.10;100.00;101227.25;5077333;27;45425;-84
2022/02/04 15:39:34;;;;;;;;;;;;;;;;;;;;;
2022/02/04 15:42:11;;;;;;;;;0.00;0.00;;;;;9.90;100.00;101212.41;5076710;27;72897;-83
2022/02/04 15:45:01;;;;;;;;;0.25;0.25;;;;;9.99;100.00;101224.09;5076858;27;45476;-83
2022/02/04 15:47:33;;;;;;;;;3.00;0.00;;;;;9.94;100.00;101226.41;5077003;28;45514;-84
2022/02/04 15:50:20;;;;;;;;;0.00;0.00;;;;;9.91;100.00;101236.59;5061590;28;47638;-83
2022/02/04 15:58:41;;;;;;;;;1.00;1.00;;;;;9.98;100.00;101272.34;5077389;27;45406;-83
2022/02/04 16:06:43;;;;;;;;;3.00;1.00;;;;;10.03;100.00;101275.16;5076523;27;45498;-84
2022/02/04 16:09:08;;;;;;;;;0.00;0.00;;;;;10.04;100.00;101274.38;5077410;27;45494;-85
2022/02/04 16:11:50;;;;;;;;;2.00;1.00;;;;;10.06;100.00;101289.16;5077531;27;45435;-84
2022/02/04 16:17:26;;;;;;;;;0.25;0.00;;;;;9.97;100.00;101290.38;5062316;27;45529;-84
2022/02/04 16:23:06;;;;;;;;;1.00;1.00;;;;;9.95;100.00;101299.75;4994053;28;45495;-84
2022/02/04 16:25:54;;;;;;;;;0.25;0.25;;;;;9.90;100.00;101302.06;4977915;28;45875;-84
2022/02/04 16:28:49;;;;;;;;;1.25;0.00;;;;;10.00;100.00;101331.91;5065125;27;45559;-84
2022/02/04 16:31:21;;;;;;;;;0.00;0.00;;;;;9.86;100.00;101311.34;5092374;27;45532;-83
2022/02/04 16:34:12;;;;;;;;;2.50;1.00;;;;;9.92;100.00;101334.09;5058666;28;45440;-85
2022/02/04 16:36:46;;;;;;;;;1.00;0.00;;;;;9.86;100.00;101325.97;5059679;27;45599;-84
2022/02/04 16:39:18;;;;;;;;;1.00;1.00;;;;;9.97;100.00;101349.88;5058106;28;45501;-83
2022/02/04 16:41:53;;;;;;;;;1.25;1.00;;;;;9.95;100.00;101347.16;5076453;27;45514;-82
2022/02/04 16:44:23;;;;;;;;;5.00;3.00;;;;;9.96;100.00;101358.44;5057583;28;47024;-82
2022/02/04 16:46:51;;;;;;;;;3.00;1.00;;;;;9.88;100.00;101350.22;5091767;27;45662;-83
2022/02/04 16:49:29;;;;;;;;;2.00;2.00;;;;;9.97;100.00;101367.97;5076217;27;45355;-84
2022/02/04 16:52:15;;;;;;;;;1.00;1.00;;;;;9.82;100.00;101355.94;5060724;28;45377;-85
2022/02/04 16:55:07;;;;;;;;;2.75;2.00;;;;;9.77;100.00;101365.16;5057763;28;46947;-83
2022/02/04 16:58:06;;;;;;;;;2.50;2.00;;;;;9.83;100.00;101391.34;5055631;28;45915;-83
2022/02/04 17:00:35;;;;;;;;;1.00;1.00;;;;;9.75;100.00;101384.84;5051124;28;45371;-83
2022/02/04 17:03:07;;;;;;;;;1.50;1.50;;;;;9.75;100.00;101395.19;5059021;28;45514;-83
2022/02/04 17:05:39;;;;;;;;;1.00;1.00;;;;;9.69;100.00;101389.66;5076883;27;46415;-84
2022/02/04 17:08:09;;;;;;;;;3.00;2.00;;;;;9.83;100.00;101421.47;5075917;27;45880;-84
2022/02/04 17:10:49;;;;;;;;;2.25;1.00;;;;;9.79;100.00;101419.53;5061630;28;45264;-84
2022/02/04 17:16:24;;;;;;;;;4.00;2.00;;;;;9.70;99.85;101431.13;4979858;28;45435;-85
2022/02/04 17:19:14;;;;;;;;;5.00;3.75;;;;;9.73;100.00;101443.34;4974127;28;45408;-82
2022/02/04 17:21:50;;;;;;;;;7.00;4.25;;;;;9.71;100.00;101444.94;4978472;28;45477;-84
2022/02/04 17:24:24;;;;;;;;;2.50;2.50;;;;;9.55;100.00;101427.63;4974469;28;45673;-84
2022/02/04 17:26:50;;;;;;;;;3.25;3.00;;;;;9.69;100.00;101460.38;4983549;28;45725;-80
2022/02/04 17:29:20;;;;;;;;;4.50;4.00;;;;;9.69;100.00;101460.38;5066492;27;45316;-82
2022/02/04 17:31:46;;;;;;;;;5.00;3.00;;;;;9.65;100.00;101457.53;5060302;28;45395;-84
2022/02/04 17:34:13;;;;;;;;;4.00;3.00;;;;;9.67;100.00;101480.06;5061250;28;45391;-78
2022/02/04 17:36:41;;;;;;;;;5.00;3.00;;;;;9.66;100.00;101475.69;5075228;28;45783;-82
2022/02/04 17:39:17;;;;;;;;;3.75;3.75;;;;;9.66;100.00;101485.16;5075640;27;45378;-81
2022/02/04 17:41:45;;;;;;;;;4.00;4.00;;;;;9.62;100.00;101493.53;5078792;27;45469;-81
2022/02/04 17:44:28;;;;;;;;;4.00;4.00;;;;;9.59;100.00;101500.28;5079313;27;45635;-85
2022/02/04 17:46:54;;;;;;;;;5.25;4.75;;;;;9.57;100.00;101506.19;5061502;28;47161;-84
2022/02/04 17:51:54;;;;;;;;;8.75;8.75;;;;;9.58;100.00;101510.56;5079836;28;45286;-87